CheckWX is a tool to help pilots better visualize weather data.  It is not intended as a substitute for an official pre-flight weather briefing.

09:07:43 UTC

KPOB METAR
Pope AAF Airport
Fayetteville, North Carolina, USA
Current

12 mins ago

KPOB 220856Z AUTO 02011G17KT 10SM RA OVC005 11/10 A3021 RMK AO2 OVC V BKN SLP233 P0019 60043 T01050096 53012 $
Observed
Feb-22 @ 08:56 UTC
Wind
  • 020° at 11 KTS
  • Gusting to KTS
Visibility
10 SM
Flight Rules
IFR
Conditions
Rain
Cloud Levels
  • Overcast at 500' AGL
Temperature
11°C / 52°F
Dewpoint
10°C / 50°F
Humidity
94%
Altimeter
30.21" Hg
Pressure
1023.3 hPa
Current Rain
0.19"
Previous

21 mins ago

KPOB 220847Z AUTO 36014KT 10SM +RA OVC005 12/11 A3021 RMK AO2 SLP233 $
Observed
Feb-22 @ 08:47 UTC
Wind
  • 360° at 14 KTS
Visibility
10 SM
Flight Rules
IFR
Conditions
Heavy Rain
Cloud Levels
  • Overcast at 500' AGL
Temperature
12°C / 54°F
Dewpoint
11°C / 52°F
Humidity
94%
Altimeter
30.21" Hg
Pressure
1023.3 hPa
Previous

43 mins ago

KPOB 220825Z AUTO 05010KT 7SM -RA OVC004 12/12 A3019 RMK AO2 CIG 004V006 SLP226 $
Observed
Feb-22 @ 08:25 UTC
Wind
  • 050° at 10 KTS
Visibility
7 SM
Flight Rules
LIFR
Conditions
Light Rain
Cloud Levels
  • Overcast at 400' AGL
Temperature
12°C / 54°F
Dewpoint
12°C / 54°F
Humidity
100%
Altimeter
30.19" Hg
Pressure
1022.6 hPa